Papineauville, Canada
Current Conditions -  °F | °C
As of 7:00 PM on Wednesday 22 Oct 2014 (Local Time) from CYND Reporting Station
Scattered Clouds Scattered Clouds  
Wind Chill: 52°   Ceiling: Unl
Heat Index: 52°   Visibility: 15mi
Dew Point: 39°   Wind: 5mph
Humidity: 62%   Direction: 10°N
Pressure: 30.25"   Gusts: NA
Location:  45.62°N, 75.02°W
Report Text: CYND 222300Z 01004KT 15SM SCT050 11/04 A3025 RMK SC3 SLP244
Loading
Personal Weather Stations






























Interactive Weather Map
Tropical Storm Tracking
New forecast layout! Learn more

10-Day Weather Forecast

Advertisements
Track Severe Weather on mobile